sensor_id;sensor_type;location;lat;lon;timestamp;P1;durP1;ratioP1;P2;durP2;ratioP2
10277;SDS011;5184;51.376;7.148;2023-05-10T00:02:15;3.43;;;3.13;;
10277;SDS011;5184;51.376;7.148;2023-05-10T00:04:41;4.70;;;3.50;;
10277;SDS011;5184;51.376;7.148;2023-05-10T00:07:08;5.27;;;4.33;;
10277;SDS011;5184;51.376;7.148;2023-05-10T00:09:34;5.97;;;4.23;;
10277;SDS011;5184;51.376;7.148;2023-05-10T00:12:02;5.53;;;4.77;;
10277;SDS011;5184;51.376;7.148;2023-05-10T00:14:29;6.20;;;4.83;;
10277;SDS011;5184;51.376;7.148;2023-05-10T00:16:57;5.37;;;4.73;;
10277;SDS011;5184;51.376;7.148;2023-05-10T00:19:23;6.37;;;5.73;;
10277;SDS011;5184;51.376;7.148;2023-05-10T00:21:50;7.13;;;6.20;;
10277;SDS011;5184;51.376;7.148;2023-05-10T00:24:16;8.93;;;6.77;;
10277;SDS011;5184;51.376;7.148;2023-05-10T00:26:43;7.60;;;6.73;;
10277;SDS011;5184;51.376;7.148;2023-05-10T00:29:10;7.17;;;5.77;;
10277;SDS011;5184;51.376;7.148;2023-05-10T00:31:37;7.03;;;6.33;;
10277;SDS011;5184;51.376;7.148;2023-05-10T00:34:04;7.63;;;6.50;;
10277;SDS011;5184;51.376;7.148;2023-05-10T00:36:31;6.97;;;6.00;;
10277;SDS011;5184;51.376;7.148;2023-05-10T00:38:58;8.10;;;6.53;;
10277;SDS011;5184;51.376;7.148;2023-05-10T00:41:24;8.87;;;6.30;;
10277;SDS011;5184;51.376;7.148;2023-05-10T00:43:51;7.93;;;6.43;;
10277;SDS011;5184;51.376;7.148;2023-05-10T00:46:17;6.57;;;5.47;;
10277;SDS011;5184;51.376;7.148;2023-05-10T00:48:46;6.93;;;5.07;;
10277;SDS011;5184;51.376;7.148;2023-05-10T00:51:13;7.07;;;5.33;;
10277;SDS011;5184;51.376;7.148;2023-05-10T00:53:40;6.67;;;4.90;;
10277;SDS011;5184;51.376;7.148;2023-05-10T00:56:08;6.10;;;4.80;;
10277;SDS011;5184;51.376;7.148;2023-05-10T00:58:35;5.90;;;5.30;;
10277;SDS011;5184;51.376;7.148;2023-05-10T01:01:03;6.27;;;5.33;;
10277;SDS011;5184;51.376;7.148;2023-05-10T01:03:29;7.03;;;5.80;;
10277;SDS011;5184;51.376;7.148;2023-05-10T01:05:56;8.13;;;6.37;;
10277;SDS011;5184;51.376;7.148;2023-05-10T01:08:23;9.27;;;7.40;;
10277;SDS011;5184;51.376;7.148;2023-05-10T01:10:49;10.63;;;7.60;;
10277;SDS011;5184;51.376;7.148;2023-05-10T01:13:18;9.80;;;8.10;;
10277;SDS011;5184;51.376;7.148;2023-05-10T01:15:43;10.77;;;8.53;;
10277;SDS011;5184;51.376;7.148;2023-05-10T01:18:10;11.27;;;9.20;;
10277;SDS011;5184;51.376;7.148;2023-05-10T01:20:39;11.90;;;9.07;;
10277;SDS011;5184;51.376;7.148;2023-05-10T01:23:10;10.77;;;9.10;;
10277;SDS011;5184;51.376;7.148;2023-05-10T01:25:54;9.80;;;8.60;;
10277;SDS011;5184;51.376;7.148;2023-05-10T01:31:07;10.13;;;9.00;;
10277;SDS011;5184;51.376;7.148;2023-05-10T01:33:39;11.97;;;10.57;;
10277;SDS011;5184;51.376;7.148;2023-05-10T01:36:08;12.23;;;10.80;;
10277;SDS011;5184;51.376;7.148;2023-05-10T01:38:50;12.10;;;10.80;;
10277;SDS011;5184;51.376;7.148;2023-05-10T01:41:51;12.80;;;11.43;;
10277;SDS011;5184;51.376;7.148;2023-05-10T01:44:04;14.13;;;12.63;;
10277;SDS011;5184;51.376;7.148;2023-05-10T01:46:33;15.93;;;13.77;;
10277;SDS011;5184;51.376;7.148;2023-05-10T01:48:59;14.60;;;13.10;;
10277;SDS011;5184;51.376;7.148;2023-05-10T01:51:27;14.73;;;13.17;;
10277;SDS011;5184;51.376;7.148;2023-05-10T01:53:54;16.27;;;14.47;;
10277;SDS011;5184;51.376;7.148;2023-05-10T01:56:20;16.30;;;14.40;;
10277;SDS011;5184;51.376;7.148;2023-05-10T01:58:47;17.10;;;14.47;;
10277;SDS011;5184;51.376;7.148;2023-05-10T02:01:13;16.40;;;14.60;;
10277;SDS011;5184;51.376;7.148;2023-05-10T02:03:40;16.40;;;13.93;;
10277;SDS011;5184;51.376;7.148;2023-05-10T02:06:07;17.40;;;14.87;;
10277;SDS011;5184;51.376;7.148;2023-05-10T02:08:34;16.40;;;14.57;;
10277;SDS011;5184;51.376;7.148;2023-05-10T02:11:00;19.27;;;14.40;;
10277;SDS011;5184;51.376;7.148;2023-05-10T02:13:27;17.37;;;13.67;;
10277;SDS011;5184;51.376;7.148;2023-05-10T02:15:54;15.83;;;14.03;;
10277;SDS011;5184;51.376;7.148;2023-05-10T02:18:22;16.90;;;13.47;;
10277;SDS011;5184;51.376;7.148;2023-05-10T02:20:48;15.93;;;13.57;;
10277;SDS011;5184;51.376;7.148;2023-05-10T02:23:15;15.73;;;14.07;;
10277;SDS011;5184;51.376;7.148;2023-05-10T02:25:42;16.47;;;14.13;;
10277;SDS011;5184;51.376;7.148;2023-05-10T02:28:09;16.17;;;14.40;;
10277;SDS011;5184;51.376;7.148;2023-05-10T02:30:35;14.33;;;12.83;;
10277;SDS011;5184;51.376;7.148;2023-05-10T02:33:02;15.50;;;12.03;;
10277;SDS011;5184;51.376;7.148;2023-05-10T02:35:29;14.53;;;12.47;;
10277;SDS011;5184;51.376;7.148;2023-05-10T02:37:56;15.00;;;12.30;;
10277;SDS011;5184;51.376;7.148;2023-05-10T02:40:23;16.57;;;12.93;;
10277;SDS011;5184;51.376;7.148;2023-05-10T02:42:50;19.00;;;14.00;;
10277;SDS011;5184;51.376;7.148;2023-05-10T02:45:19;17.57;;;13.57;;
10277;SDS011;5184;51.376;7.148;2023-05-10T02:47:44;18.17;;;15.03;;
10277;SDS011;5184;51.376;7.148;2023-05-10T02:50:11;18.83;;;15.73;;
10277;SDS011;5184;51.376;7.148;2023-05-10T02:52:42;20.03;;;15.33;;
10277;SDS011;5184;51.376;7.148;2023-05-10T02:55:07;19.67;;;16.20;;
10277;SDS011;5184;51.376;7.148;2023-05-10T02:57:34;20.83;;;16.17;;
10277;SDS011;5184;51.376;7.148;2023-05-10T03:00:01;21.40;;;17.37;;
10277;SDS011;5184;51.376;7.148;2023-05-10T03:02:28;19.17;;;15.83;;
10277;SDS011;5184;51.376;7.148;2023-05-10T03:04:54;18.23;;;15.83;;
10277;SDS011;5184;51.376;7.148;2023-05-10T03:07:21;20.40;;;16.27;;
10277;SDS011;5184;51.376;7.148;2023-05-10T03:09:48;20.63;;;16.30;;
10277;SDS011;5184;51.376;7.148;2023-05-10T03:12:16;17.40;;;13.73;;
10277;SDS011;5184;51.376;7.148;2023-05-10T03:15:17;18.13;;;15.47;;
10277;SDS011;5184;51.376;7.148;2023-05-10T03:17:36;16.77;;;14.03;;
10277;SDS011;5184;51.376;7.148;2023-05-10T03:20:08;15.97;;;13.57;;
10277;SDS011;5184;51.376;7.148;2023-05-10T03:22:37;17.03;;;13.97;;
10277;SDS011;5184;51.376;7.148;2023-05-10T03:25:05;16.27;;;14.17;;
10277;SDS011;5184;51.376;7.148;2023-05-10T03:27:31;18.33;;;14.83;;
10277;SDS011;5184;51.376;7.148;2023-05-10T03:29:58;19.00;;;15.07;;
10277;SDS011;5184;51.376;7.148;2023-05-10T03:32:25;17.40;;;14.77;;
10277;SDS011;5184;51.376;7.148;2023-05-10T03:34:52;20.10;;;16.40;;
10277;SDS011;5184;51.376;7.148;2023-05-10T03:37:18;20.63;;;15.67;;
10277;SDS011;5184;51.376;7.148;2023-05-10T03:39:45;17.90;;;14.83;;
10277;SDS011;5184;51.376;7.148;2023-05-10T03:42:12;19.20;;;16.10;;
10277;SDS011;5184;51.376;7.148;2023-05-10T03:44:39;22.40;;;16.47;;
10277;SDS011;5184;51.376;7.148;2023-05-10T03:47:06;19.57;;;16.03;;
10277;SDS011;5184;51.376;7.148;2023-05-10T03:49:33;19.63;;;14.77;;
10277;SDS011;5184;51.376;7.148;2023-05-10T03:52:01;20.87;;;15.97;;
10277;SDS011;5184;51.376;7.148;2023-05-10T03:54:27;20.43;;;15.57;;
10277;SDS011;5184;51.376;7.148;2023-05-10T03:56:54;22.03;;;16.70;;
10277;SDS011;5184;51.376;7.148;2023-05-10T03:59:20;24.00;;;17.33;;
10277;SDS011;5184;51.376;7.148;2023-05-10T04:01:48;22.93;;;17.07;;
10277;SDS011;5184;51.376;7.148;2023-05-10T04:04:15;23.00;;;16.93;;
10277;SDS011;5184;51.376;7.148;2023-05-10T04:09:14;21.80;;;15.60;;
10277;SDS011;5184;51.376;7.148;2023-05-10T04:11:40;20.43;;;14.80;;
10277;SDS011;5184;51.376;7.148;2023-05-10T04:14:07;20.20;;;14.97;;
10277;SDS011;5184;51.376;7.148;2023-05-10T04:16:34;22.37;;;15.07;;
10277;SDS011;5184;51.376;7.148;2023-05-10T04:19:01;19.53;;;13.87;;
10277;SDS011;5184;51.376;7.148;2023-05-10T04:21:28;21.47;;;15.47;;
10277;SDS011;5184;51.376;7.148;2023-05-10T04:23:55;19.53;;;15.33;;
10277;SDS011;5184;51.376;7.148;2023-05-10T04:26:21;24.50;;;17.23;;
10277;SDS011;5184;51.376;7.148;2023-05-10T04:28:48;20.83;;;15.60;;
10277;SDS011;5184;51.376;7.148;2023-05-10T04:31:15;24.67;;;16.30;;
10277;SDS011;5184;51.376;7.148;2023-05-10T04:33:43;23.63;;;16.83;;
10277;SDS011;5184;51.376;7.148;2023-05-10T04:36:09;27.97;;;18.93;;
10277;SDS011;5184;51.376;7.148;2023-05-10T04:38:36;27.13;;;19.70;;
10277;SDS011;5184;51.376;7.148;2023-05-10T04:41:04;29.93;;;19.23;;
10277;SDS011;5184;51.376;7.148;2023-05-10T04:43:31;33.43;;;20.90;;
10277;SDS011;5184;51.376;7.148;2023-05-10T04:45:57;34.50;;;22.60;;
10277;SDS011;5184;51.376;7.148;2023-05-10T04:48:24;34.60;;;22.20;;
10277;SDS011;5184;51.376;7.148;2023-05-10T04:50:51;38.90;;;23.30;;
10277;SDS011;5184;51.376;7.148;2023-05-10T04:53:18;36.00;;;22.43;;
10277;SDS011;5184;51.376;7.148;2023-05-10T04:55:44;37.53;;;22.73;;
10277;SDS011;5184;51.376;7.148;2023-05-10T04:58:11;35.30;;;22.57;;
10277;SDS011;5184;51.376;7.148;2023-05-10T05:00:38;37.90;;;23.37;;
10277;SDS011;5184;51.376;7.148;2023-05-10T05:03:05;36.73;;;22.73;;
10277;SDS011;5184;51.376;7.148;2023-05-10T05:05:32;33.77;;;22.27;;
10277;SDS011;5184;51.376;7.148;2023-05-10T05:07:59;36.17;;;24.20;;
10277;SDS011;5184;51.376;7.148;2023-05-10T05:10:26;40.57;;;24.10;;
10277;SDS011;5184;51.376;7.148;2023-05-10T05:12:53;35.50;;;22.33;;
10277;SDS011;5184;51.376;7.148;2023-05-10T05:15:19;39.83;;;24.13;;
10277;SDS011;5184;51.376;7.148;2023-05-10T05:17:46;37.27;;;22.10;;
10277;SDS011;5184;51.376;7.148;2023-05-10T05:20:13;37.23;;;23.17;;
10277;SDS011;5184;51.376;7.148;2023-05-10T05:22:39;41.87;;;24.43;;
10277;SDS011;5184;51.376;7.148;2023-05-10T05:25:06;39.43;;;25.13;;
10277;SDS011;5184;51.376;7.148;2023-05-10T05:27:33;35.63;;;23.73;;
10277;SDS011;5184;51.376;7.148;2023-05-10T05:30:00;42.10;;;25.50;;
10277;SDS011;5184;51.376;7.148;2023-05-10T05:32:27;38.67;;;24.57;;
10277;SDS011;5184;51.376;7.148;2023-05-10T05:34:53;41.17;;;26.23;;
10277;SDS011;5184;51.376;7.148;2023-05-10T05:37:20;41.23;;;26.17;;
10277;SDS011;5184;51.376;7.148;2023-05-10T05:39:47;39.50;;;25.63;;
10277;SDS011;5184;51.376;7.148;2023-05-10T05:42:15;40.93;;;25.57;;
10277;SDS011;5184;51.376;7.148;2023-05-10T05:44:41;43.67;;;25.93;;
10277;SDS011;5184;51.376;7.148;2023-05-10T05:47:09;38.57;;;24.63;;
10277;SDS011;5184;51.376;7.148;2023-05-10T05:49:36;39.00;;;24.93;;
10277;SDS011;5184;51.376;7.148;2023-05-10T05:52:03;35.63;;;24.83;;
10277;SDS011;5184;51.376;7.148;2023-05-10T05:54:30;39.10;;;25.17;;
10277;SDS011;5184;51.376;7.148;2023-05-10T05:56:56;36.80;;;24.40;;
10277;SDS011;5184;51.376;7.148;2023-05-10T05:59:22;36.30;;;24.33;;
10277;SDS011;5184;51.376;7.148;2023-05-10T06:01:49;36.73;;;22.23;;
10277;SDS011;5184;51.376;7.148;2023-05-10T06:04:17;35.33;;;23.03;;
10277;SDS011;5184;51.376;7.148;2023-05-10T06:06:43;32.87;;;22.93;;
10277;SDS011;5184;51.376;7.148;2023-05-10T06:09:10;34.63;;;22.70;;
10277;SDS011;5184;51.376;7.148;2023-05-10T06:11:36;33.47;;;22.27;;
10277;SDS011;5184;51.376;7.148;2023-05-10T06:14:04;32.93;;;22.87;;
10277;SDS011;5184;51.376;7.148;2023-05-10T06:16:31;33.73;;;22.50;;
10277;SDS011;5184;51.376;7.148;2023-05-10T06:18:58;31.77;;;21.30;;
10277;SDS011;5184;51.376;7.148;2023-05-10T06:21:24;29.57;;;20.90;;
10277;SDS011;5184;51.376;7.148;2023-05-10T06:23:51;29.60;;;21.40;;
10277;SDS011;5184;51.376;7.148;2023-05-10T06:26:18;31.00;;;21.73;;
10277;SDS011;5184;51.376;7.148;2023-05-10T06:28:45;28.93;;;21.50;;
10277;SDS011;5184;51.376;7.148;2023-05-10T06:31:11;29.83;;;20.67;;
10277;SDS011;5184;51.376;7.148;2023-05-10T06:33:38;33.40;;;21.20;;
10277;SDS011;5184;51.376;7.148;2023-05-10T06:36:05;31.87;;;21.20;;
10277;SDS011;5184;51.376;7.148;2023-05-10T06:38:33;30.80;;;21.10;;
10277;SDS011;5184;51.376;7.148;2023-05-10T06:40:59;29.53;;;20.57;;
10277;SDS011;5184;51.376;7.148;2023-05-10T06:43:26;29.10;;;20.53;;
10277;SDS011;5184;51.376;7.148;2023-05-10T06:45:52;33.43;;;22.00;;
10277;SDS011;5184;51.376;7.148;2023-05-10T06:48:20;29.40;;;21.33;;
10277;SDS011;5184;51.376;7.148;2023-05-10T06:50:46;31.13;;;22.80;;
10277;SDS011;5184;51.376;7.148;2023-05-10T06:53:13;32.30;;;21.50;;
10277;SDS011;5184;51.376;7.148;2023-05-10T06:55:40;30.77;;;21.00;;
10277;SDS011;5184;51.376;7.148;2023-05-10T06:58:07;31.87;;;21.30;;
10277;SDS011;5184;51.376;7.148;2023-05-10T07:00:34;32.97;;;22.83;;
10277;SDS011;5184;51.376;7.148;2023-05-10T07:03:01;38.93;;;23.50;;
10277;SDS011;5184;51.376;7.148;2023-05-10T07:05:28;37.47;;;24.57;;
10277;SDS011;5184;51.376;7.148;2023-05-10T07:07:54;34.30;;;25.03;;
10277;SDS011;5184;51.376;7.148;2023-05-10T07:10:21;40.57;;;25.77;;
10277;SDS011;5184;51.376;7.148;2023-05-10T07:12:49;34.93;;;23.73;;
10277;SDS011;5184;51.376;7.148;2023-05-10T07:15:15;28.40;;;19.57;;
10277;SDS011;5184;51.376;7.148;2023-05-10T07:17:43;27.13;;;19.03;;
10277;SDS011;5184;51.376;7.148;2023-05-10T07:20:10;24.80;;;17.73;;
10277;SDS011;5184;51.376;7.148;2023-05-10T07:22:38;25.33;;;16.67;;
10277;SDS011;5184;51.376;7.148;2023-05-10T07:25:05;21.00;;;15.07;;
10277;SDS011;5184;51.376;7.148;2023-05-10T07:27:32;18.90;;;14.10;;
10277;SDS011;5184;51.376;7.148;2023-05-10T07:29:59;21.27;;;15.03;;
10277;SDS011;5184;51.376;7.148;2023-05-10T07:32:27;23.47;;;15.87;;
10277;SDS011;5184;51.376;7.148;2023-05-10T07:34:53;22.67;;;15.07;;
10277;SDS011;5184;51.376;7.148;2023-05-10T07:37:20;22.77;;;14.77;;
10277;SDS011;5184;51.376;7.148;2023-05-10T07:39:46;19.83;;;15.30;;
10277;SDS011;5184;51.376;7.148;2023-05-10T07:42:14;23.80;;;15.87;;
10277;SDS011;5184;51.376;7.148;2023-05-10T07:44:40;24.57;;;16.40;;
10277;SDS011;5184;51.376;7.148;2023-05-10T07:47:09;24.40;;;17.20;;
10277;SDS011;5184;51.376;7.148;2023-05-10T07:49:35;26.27;;;17.73;;
10277;SDS011;5184;51.376;7.148;2023-05-10T07:52:02;31.10;;;17.73;;
10277;SDS011;5184;51.376;7.148;2023-05-10T07:54:28;29.10;;;18.50;;
10277;SDS011;5184;51.376;7.148;2023-05-10T07:56:56;30.93;;;18.57;;
10277;SDS011;5184;51.376;7.148;2023-05-10T07:59:23;32.30;;;20.33;;
10277;SDS011;5184;51.376;7.148;2023-05-10T08:01:50;35.23;;;19.33;;
10277;SDS011;5184;51.376;7.148;2023-05-10T08:04:16;30.97;;;19.50;;
10277;SDS011;5184;51.376;7.148;2023-05-10T08:06:43;31.97;;;20.30;;
10277;SDS011;5184;51.376;7.148;2023-05-10T08:09:10;35.07;;;19.33;;
10277;SDS011;5184;51.376;7.148;2023-05-10T08:11:37;31.10;;;21.30;;
10277;SDS011;5184;51.376;7.148;2023-05-10T08:14:03;35.17;;;19.53;;
10277;SDS011;5184;51.376;7.148;2023-05-10T08:16:30;32.37;;;19.23;;
10277;SDS011;5184;51.376;7.148;2023-05-10T08:18:57;27.40;;;18.57;;
10277;SDS011;5184;51.376;7.148;2023-05-10T08:21:25;29.00;;;18.47;;
10277;SDS011;5184;51.376;7.148;2023-05-10T08:23:51;28.27;;;18.67;;
10277;SDS011;5184;51.376;7.148;2023-05-10T08:26:18;27.57;;;17.63;;
10277;SDS011;5184;51.376;7.148;2023-05-10T08:28:45;26.43;;;17.37;;
10277;SDS011;5184;51.376;7.148;2023-05-10T08:31:12;26.77;;;17.87;;
10277;SDS011;5184;51.376;7.148;2023-05-10T08:33:38;21.00;;;14.70;;
10277;SDS011;5184;51.376;7.148;2023-05-10T08:36:06;22.97;;;14.93;;
10277;SDS011;5184;51.376;7.148;2023-05-10T08:38:32;17.80;;;13.77;;
10277;SDS011;5184;51.376;7.148;2023-05-10T08:41:01;19.50;;;12.70;;
10277;SDS011;5184;51.376;7.148;2023-05-10T08:43:28;15.10;;;11.27;;
10277;SDS011;5184;51.376;7.148;2023-05-10T08:45:54;14.03;;;10.70;;
10277;SDS011;5184;51.376;7.148;2023-05-10T08:48:20;15.37;;;11.37;;
10277;SDS011;5184;51.376;7.148;2023-05-10T08:50:48;16.60;;;11.60;;
10277;SDS011;5184;51.376;7.148;2023-05-10T08:53:15;16.03;;;11.70;;
10277;SDS011;5184;51.376;7.148;2023-05-10T08:55:43;16.80;;;11.57;;
10277;SDS011;5184;51.376;7.148;2023-05-10T08:58:10;18.60;;;12.60;;
10277;SDS011;5184;51.376;7.148;2023-05-10T09:00:37;20.57;;;12.57;;
10277;SDS011;5184;51.376;7.148;2023-05-10T09:03:03;22.33;;;12.73;;
10277;SDS011;5184;51.376;7.148;2023-05-10T09:05:30;17.03;;;12.47;;
10277;SDS011;5184;51.376;7.148;2023-05-10T09:07:57;14.30;;;11.37;;
10277;SDS011;5184;51.376;7.148;2023-05-10T09:10:24;18.20;;;13.10;;
10277;SDS011;5184;51.376;7.148;2023-05-10T09:12:51;16.80;;;11.87;;
10277;SDS011;5184;51.376;7.148;2023-05-10T09:15:18;16.63;;;12.30;;
10277;SDS011;5184;51.376;7.148;2023-05-10T09:17:45;17.67;;;12.33;;
10277;SDS011;5184;51.376;7.148;2023-05-10T09:20:11;17.33;;;12.37;;
10277;SDS011;5184;51.376;7.148;2023-05-10T09:22:38;16.43;;;12.23;;
10277;SDS011;5184;51.376;7.148;2023-05-10T09:25:06;22.40;;;13.67;;
10277;SDS011;5184;51.376;7.148;2023-05-10T09:27:33;19.73;;;13.30;;
10277;SDS011;5184;51.376;7.148;2023-05-10T09:30:01;19.07;;;13.60;;
10277;SDS011;5184;51.376;7.148;2023-05-10T09:35:08;22.53;;;15.97;;
10277;SDS011;5184;51.376;7.148;2023-05-10T09:37:34;21.20;;;14.73;;
10277;SDS011;5184;51.376;7.148;2023-05-10T09:40:04;25.90;;;14.93;;
10277;SDS011;5184;51.376;7.148;2023-05-10T09:42:28;24.03;;;16.83;;
10277;SDS011;5184;51.376;7.148;2023-05-10T09:44:59;23.63;;;15.90;;
10277;SDS011;5184;51.376;7.148;2023-05-10T09:47:22;22.87;;;16.13;;
10277;SDS011;5184;51.376;7.148;2023-05-10T09:49:49;22.20;;;16.07;;
10277;SDS011;5184;51.376;7.148;2023-05-10T09:52:15;20.70;;;14.67;;
10277;SDS011;5184;51.376;7.148;2023-05-10T09:54:45;25.80;;;16.53;;
10277;SDS011;5184;51.376;7.148;2023-05-10T09:57:19;24.73;;;17.23;;
10277;SDS011;5184;51.376;7.148;2023-05-10T09:59:45;25.97;;;18.37;;
10277;SDS011;5184;51.376;7.148;2023-05-10T10:02:12;26.17;;;17.90;;
10277;SDS011;5184;51.376;7.148;2023-05-10T10:04:39;30.33;;;19.83;;
10277;SDS011;5184;51.376;7.148;2023-05-10T10:07:05;30.37;;;19.07;;
10277;SDS011;5184;51.376;7.148;2023-05-10T10:09:33;30.77;;;20.90;;
10277;SDS011;5184;51.376;7.148;2023-05-10T10:12:00;27.10;;;19.63;;
10277;SDS011;5184;51.376;7.148;2023-05-10T10:14:27;29.57;;;20.00;;
10277;SDS011;5184;51.376;7.148;2023-05-10T10:16:54;27.10;;;17.93;;
10277;SDS011;5184;51.376;7.148;2023-05-10T10:19:22;28.90;;;18.13;;
10277;SDS011;5184;51.376;7.148;2023-05-10T10:21:49;26.00;;;17.70;;
10277;SDS011;5184;51.376;7.148;2023-05-10T10:24:16;24.87;;;16.90;;
10277;SDS011;5184;51.376;7.148;2023-05-10T10:26:44;24.30;;;16.63;;
10277;SDS011;5184;51.376;7.148;2023-05-10T10:29:19;23.60;;;15.87;;
10277;SDS011;5184;51.376;7.148;2023-05-10T10:31:57;22.67;;;16.30;;
10277;SDS011;5184;51.376;7.148;2023-05-10T10:34:38;22.53;;;16.57;;
10277;SDS011;5184;51.376;7.148;2023-05-10T10:37:05;23.53;;;15.87;;
10277;SDS011;5184;51.376;7.148;2023-05-10T10:39:31;18.20;;;13.13;;
10277;SDS011;5184;51.376;7.148;2023-05-10T10:41:58;17.10;;;12.80;;
10277;SDS011;5184;51.376;7.148;2023-05-10T10:44:28;16.87;;;12.67;;
10277;SDS011;5184;51.376;7.148;2023-05-10T10:49:52;15.30;;;12.27;;
10277;SDS011;5184;51.376;7.148;2023-05-10T10:52:36;17.47;;;13.20;;
10277;SDS011;5184;51.376;7.148;2023-05-10T10:55:04;18.60;;;13.40;;
10277;SDS011;5184;51.376;7.148;2023-05-10T10:57:44;16.03;;;11.80;;
10277;SDS011;5184;51.376;7.148;2023-05-10T11:00:29;15.57;;;10.83;;
10277;SDS011;5184;51.376;7.148;2023-05-10T11:03:01;16.43;;;12.27;;
10277;SDS011;5184;51.376;7.148;2023-05-10T11:05:40;14.00;;;11.60;;
10277;SDS011;5184;51.376;7.148;2023-05-10T11:08:09;16.60;;;12.93;;
10277;SDS011;5184;51.376;7.148;2023-05-10T11:10:35;15.60;;;11.90;;
10277;SDS011;5184;51.376;7.148;2023-05-10T11:13:05;16.80;;;11.83;;
10277;SDS011;5184;51.376;7.148;2023-05-10T11:15:33;16.30;;;13.00;;
10277;SDS011;5184;51.376;7.148;2023-05-10T11:17:59;17.17;;;12.70;;
10277;SDS011;5184;51.376;7.148;2023-05-10T11:20:27;18.90;;;13.30;;
10277;SDS011;5184;51.376;7.148;2023-05-10T11:22:53;16.63;;;13.93;;
10277;SDS011;5184;51.376;7.148;2023-05-10T11:25:25;17.63;;;13.57;;
10277;SDS011;5184;51.376;7.148;2023-05-10T11:27:47;17.73;;;14.77;;
10277;SDS011;5184;51.376;7.148;2023-05-10T11:30:15;18.90;;;14.93;;
10277;SDS011;5184;51.376;7.148;2023-05-10T11:32:42;19.20;;;15.83;;
10277;SDS011;5184;51.376;7.148;2023-05-10T11:35:10;19.50;;;14.87;;
10277;SDS011;5184;51.376;7.148;2023-05-10T11:37:36;20.07;;;14.33;;
10277;SDS011;5184;51.376;7.148;2023-05-10T11:40:03;18.90;;;13.00;;
10277;SDS011;5184;51.376;7.148;2023-05-10T11:42:29;18.47;;;13.90;;
10277;SDS011;5184;51.376;7.148;2023-05-10T11:44:56;17.50;;;13.87;;
10277;SDS011;5184;51.376;7.148;2023-05-10T11:47:23;17.97;;;12.83;;
10277;SDS011;5184;51.376;7.148;2023-05-10T11:49:50;16.67;;;12.23;;
10277;SDS011;5184;51.376;7.148;2023-05-10T11:52:17;19.00;;;12.93;;
10277;SDS011;5184;51.376;7.148;2023-05-10T11:54:44;19.70;;;13.23;;
10277;SDS011;5184;51.376;7.148;2023-05-10T11:57:12;17.50;;;13.87;;
10277;SDS011;5184;51.376;7.148;2023-05-10T11:59:39;14.30;;;12.00;;
10277;SDS011;5184;51.376;7.148;2023-05-10T12:02:05;15.50;;;11.93;;
10277;SDS011;5184;51.376;7.148;2023-05-10T12:04:32;16.93;;;12.13;;
10277;SDS011;5184;51.376;7.148;2023-05-10T12:06:58;16.27;;;12.53;;
10277;SDS011;5184;51.376;7.148;2023-05-10T12:09:25;20.07;;;13.30;;
10277;SDS011;5184;51.376;7.148;2023-05-10T12:11:54;14.53;;;12.43;;
10277;SDS011;5184;51.376;7.148;2023-05-10T12:14:19;17.17;;;12.00;;
10277;SDS011;5184;51.376;7.148;2023-05-10T12:16:45;14.97;;;10.80;;
10277;SDS011;5184;51.376;7.148;2023-05-10T12:19:12;12.20;;;9.83;;
10277;SDS011;5184;51.376;7.148;2023-05-10T12:21:39;11.13;;;9.33;;
10277;SDS011;5184;51.376;7.148;2023-05-10T12:24:07;11.53;;;9.63;;
10277;SDS011;5184;51.376;7.148;2023-05-10T12:26:34;12.17;;;10.53;;
10277;SDS011;5184;51.376;7.148;2023-05-10T12:36:52;15.23;;;10.47;;
10277;SDS011;5184;51.376;7.148;2023-05-10T12:39:19;14.77;;;10.80;;
10277;SDS011;5184;51.376;7.148;2023-05-10T12:41:46;12.70;;;10.67;;
10277;SDS011;5184;51.376;7.148;2023-05-10T12:44:14;11.77;;;10.43;;
10277;SDS011;5184;51.376;7.148;2023-05-10T12:46:40;14.90;;;11.57;;
10277;SDS011;5184;51.376;7.148;2023-05-10T12:49:07;14.87;;;12.03;;
10277;SDS011;5184;51.376;7.148;2023-05-10T12:51:33;13.80;;;11.40;;
10277;SDS011;5184;51.376;7.148;2023-05-10T12:54:01;12.53;;;11.20;;
10277;SDS011;5184;51.376;7.148;2023-05-10T12:56:28;14.47;;;11.97;;
10277;SDS011;5184;51.376;7.148;2023-05-10T12:58:54;14.13;;;11.40;;
10277;SDS011;5184;51.376;7.148;2023-05-10T13:01:21;13.77;;;11.20;;
10277;SDS011;5184;51.376;7.148;2023-05-10T13:03:48;15.23;;;13.70;;
10277;SDS011;5184;51.376;7.148;2023-05-10T13:06:15;14.53;;;12.60;;
10277;SDS011;5184;51.376;7.148;2023-05-10T13:08:42;14.50;;;11.93;;
10277;SDS011;5184;51.376;7.148;2023-05-10T13:11:10;15.07;;;12.10;;
10277;SDS011;5184;51.376;7.148;2023-05-10T13:13:36;14.30;;;12.67;;
10277;SDS011;5184;51.376;7.148;2023-05-10T13:16:05;13.83;;;12.33;;
10277;SDS011;5184;51.376;7.148;2023-05-10T13:18:32;12.50;;;11.17;;
10277;SDS011;5184;51.376;7.148;2023-05-10T13:20:58;11.90;;;10.77;;
10277;SDS011;5184;51.376;7.148;2023-05-10T13:23:26;10.87;;;9.77;;
10277;SDS011;5184;51.376;7.148;2023-05-10T13:25:54;12.20;;;10.03;;
10277;SDS011;5184;51.376;7.148;2023-05-10T13:28:20;11.40;;;10.03;;
10277;SDS011;5184;51.376;7.148;2023-05-10T13:30:47;10.27;;;8.93;;
10277;SDS011;5184;51.376;7.148;2023-05-10T13:33:13;11.17;;;9.83;;
10277;SDS011;5184;51.376;7.148;2023-05-10T13:35:41;10.27;;;9.17;;
10277;SDS011;5184;51.376;7.148;2023-05-10T13:38:10;10.07;;;8.80;;
10277;SDS011;5184;51.376;7.148;2023-05-10T13:40:36;8.87;;;7.97;;
10277;SDS011;5184;51.376;7.148;2023-05-10T13:43:04;9.77;;;8.67;;
10277;SDS011;5184;51.376;7.148;2023-05-10T13:45:31;10.23;;;9.23;;
10277;SDS011;5184;51.376;7.148;2023-05-10T13:47:58;8.70;;;7.83;;
10277;SDS011;5184;51.376;7.148;2023-05-10T13:50:25;9.03;;;8.13;;
10277;SDS011;5184;51.376;7.148;2023-05-10T13:52:51;9.80;;;7.53;;
10277;SDS011;5184;51.376;7.148;2023-05-10T13:55:18;7.63;;;6.93;;
10277;SDS011;5184;51.376;7.148;2023-05-10T13:57:45;8.37;;;7.20;;
10277;SDS011;5184;51.376;7.148;2023-05-10T14:00:11;8.53;;;7.63;;
10277;SDS011;5184;51.376;7.148;2023-05-10T14:02:38;9.07;;;7.63;;
10277;SDS011;5184;51.376;7.148;2023-05-10T14:05:06;8.77;;;7.53;;
10277;SDS011;5184;51.376;7.148;2023-05-10T14:07:33;9.37;;;7.50;;
10277;SDS011;5184;51.376;7.148;2023-05-10T14:10:00;10.03;;;8.50;;
10277;SDS011;5184;51.376;7.148;2023-05-10T14:12:27;9.80;;;8.80;;
10277;SDS011;5184;51.376;7.148;2023-05-10T14:14:53;9.17;;;7.83;;
10277;SDS011;5184;51.376;7.148;2023-05-10T14:17:20;11.23;;;9.03;;
10277;SDS011;5184;51.376;7.148;2023-05-10T14:19:46;9.37;;;8.43;;
10277;SDS011;5184;51.376;7.148;2023-05-10T14:22:13;9.33;;;8.50;;
10277;SDS011;5184;51.376;7.148;2023-05-10T14:24:40;9.70;;;8.70;;
10277;SDS011;5184;51.376;7.148;2023-05-10T14:27:06;12.97;;;9.30;;
10277;SDS011;5184;51.376;7.148;2023-05-10T14:29:34;10.70;;;9.70;;
10277;SDS011;5184;51.376;7.148;2023-05-10T14:32:00;10.93;;;9.30;;
10277;SDS011;5184;51.376;7.148;2023-05-10T14:34:28;11.47;;;9.30;;
10277;SDS011;5184;51.376;7.148;2023-05-10T14:36:56;10.27;;;9.17;;
10277;SDS011;5184;51.376;7.148;2023-05-10T14:39:23;11.27;;;8.80;;
10277;SDS011;5184;51.376;7.148;2023-05-10T14:41:50;11.30;;;9.47;;
10277;SDS011;5184;51.376;7.148;2023-05-10T14:44:16;10.37;;;9.27;;
10277;SDS011;5184;51.376;7.148;2023-05-10T14:46:43;9.33;;;8.43;;
10277;SDS011;5184;51.376;7.148;2023-05-10T14:49:09;11.03;;;8.80;;
10277;SDS011;5184;51.376;7.148;2023-05-10T14:51:36;11.13;;;10.00;;
10277;SDS011;5184;51.376;7.148;2023-05-10T14:54:03;12.47;;;10.27;;
10277;SDS011;5184;51.376;7.148;2023-05-10T14:56:29;10.20;;;9.30;;
10277;SDS011;5184;51.376;7.148;2023-05-10T14:58:56;13.30;;;11.00;;